Carlotta, California
Current Conditions -  °F | °C
As of 7:55 AM on Friday 28 Nov 2014 (Local Time) from KFOT Reporting Station
Overcast Overcast  
Wind Chill: 12°   Ceiling: 3700
Heat Index: 12°   Visibility: 3mi
Dew Point: 10°   Wind: 20mph
Humidity: 88%   Direction: 130°SE
Pressure: 29.9"   Gusts: 24mph
Location:  40.54°N, 124.06°W
Report Text: KFOT 281555Z AUTO 13017G21KT 3SM SCT030 BKN037 OVC050 12/10 A2990 RMK AO1 P0003
Loading
Personal Weather Stations






























Interactive Weather Map New forecast layout! Learn more

10-Day Weather Forecast

Advertisements
Track Severe Weather on mobile